sensor_id;sensor_type;location;lat;lon;timestamp;pressure;altitude;pressure_sealevel;temperature;humidity
69027;BME280;56080;47.594;19.116;2022-12-07T00:01:23;100189;;;3.17;90.50
69027;BME280;56080;47.594;19.116;2022-12-07T00:06:22;100175;;;3.31;89.56
69027;BME280;56080;47.594;19.116;2022-12-07T00:11:22;100172;;;3.10;89.87
69027;BME280;56080;47.594;19.116;2022-12-07T00:16:24;100172;;;3.06;91.39
69027;BME280;56080;47.594;19.116;2022-12-07T00:21:23;100168;;;2.96;91.65
69027;BME280;56080;47.594;19.116;2022-12-07T00:26:24;100162;;;2.77;92.06
69027;BME280;56080;47.594;19.116;2022-12-07T00:31:23;100159;;;2.63;93.44
69027;BME280;56080;47.594;19.116;2022-12-07T00:36:27;100157;;;2.66;93.56
69027;BME280;56080;47.594;19.116;2022-12-07T00:41:23;100150;;;2.51;94.17
69027;BME280;56080;47.594;19.116;2022-12-07T00:46:22;100147;;;2.65;93.79
69027;BME280;56080;47.594;19.116;2022-12-07T00:51:23;100148;;;2.32;94.65
69027;BME280;56080;47.594;19.116;2022-12-07T00:56:23;100149;;;2.40;94.84
69027;BME280;56080;47.594;19.116;2022-12-07T01:01:22;100153;;;2.48;94.75
69027;BME280;56080;47.594;19.116;2022-12-07T01:06:22;100158;;;2.51;94.46
69027;BME280;56080;47.594;19.116;2022-12-07T01:11:23;100155;;;2.67;93.75
69027;BME280;56080;47.594;19.116;2022-12-07T01:16:23;100143;;;2.36;94.47
69027;BME280;56080;47.594;19.116;2022-12-07T01:21:24;100146;;;2.38;95.43
69027;BME280;56080;47.594;19.116;2022-12-07T01:26:22;100135;;;2.34;95.02
69027;BME280;56080;47.594;19.116;2022-12-07T01:31:23;100137;;;1.93;96.52
69027;BME280;56080;47.594;19.116;2022-12-07T01:36:23;100138;;;2.02;97.50
69027;BME280;56080;47.594;19.116;2022-12-07T01:41:23;100142;;;1.84;97.95
69027;BME280;56080;47.594;19.116;2022-12-07T01:46:22;100141;;;1.94;98.12
69027;BME280;56080;47.594;19.116;2022-12-07T01:51:22;100146;;;1.65;99.04
69027;BME280;56080;47.594;19.116;2022-12-07T01:56:23;100139;;;1.76;98.65
69027;BME280;56080;47.594;19.116;2022-12-07T02:01:22;100144;;;1.70;99.50
69027;BME280;56080;47.594;19.116;2022-12-07T02:06:23;100131;;;1.84;98.91
69027;BME280;56080;47.594;19.116;2022-12-07T02:11:22;100137;;;1.96;98.60
69027;BME280;56080;47.594;19.116;2022-12-07T02:31:22;100123;;;1.74;100.00
69027;BME280;56080;47.594;19.116;2022-12-07T02:36:25;100124;;;1.79;100.00
69027;BME280;56080;47.594;19.116;2022-12-07T02:41:24;100127;;;1.67;100.00
69027;BME280;56080;47.594;19.116;2022-12-07T02:46:23;100115;;;1.70;100.00
69027;BME280;56080;47.594;19.116;2022-12-07T02:51:22;100117;;;1.35;100.00
69027;BME280;56080;47.594;19.116;2022-12-07T03:06:22;100120;;;1.44;100.00
69027;BME280;56080;47.594;19.116;2022-12-07T03:11:25;100121;;;1.39;100.00
69027;BME280;56080;47.594;19.116;2022-12-07T03:16:25;100110;;;1.44;100.00
69027;BME280;56080;47.594;19.116;2022-12-07T03:21:23;100112;;;1.55;100.00
69027;BME280;56080;47.594;19.116;2022-12-07T03:26:24;100109;;;1.61;100.00
69027;BME280;56080;47.594;19.116;2022-12-07T03:31:23;100113;;;1.70;100.00
69027;BME280;56080;47.594;19.116;2022-12-07T03:36:25;100115;;;1.77;100.00
69027;BME280;56080;47.594;19.116;2022-12-07T03:41:23;100119;;;1.90;100.00
69027;BME280;56080;47.594;19.116;2022-12-07T03:51:24;100145;;;2.10;100.00
69027;BME280;56080;47.594;19.116;2022-12-07T03:56:22;100143;;;2.13;100.00
69027;BME280;56080;47.594;19.116;2022-12-07T04:01:22;100138;;;2.08;100.00
69027;BME280;56080;47.594;19.116;2022-12-07T04:06:22;100135;;;2.06;100.00
69027;BME280;56080;47.594;19.116;2022-12-07T04:11:22;100132;;;2.22;100.00
69027;BME280;56080;47.594;19.116;2022-12-07T04:16:22;100132;;;2.20;100.00
69027;BME280;56080;47.594;19.116;2022-12-07T04:21:22;100140;;;2.23;100.00
69027;BME280;56080;47.594;19.116;2022-12-07T04:26:22;100135;;;2.57;100.00
69027;BME280;56080;47.594;19.116;2022-12-07T04:31:22;100133;;;2.49;100.00
69027;BME280;56080;47.594;19.116;2022-12-07T04:36:22;100133;;;2.35;100.00
69027;BME280;56080;47.594;19.116;2022-12-07T04:41:27;100124;;;2.52;100.00
69027;BME280;56080;47.594;19.116;2022-12-07T04:46:22;100129;;;2.83;100.00
69027;BME280;56080;47.594;19.116;2022-12-07T04:51:24;100124;;;2.89;100.00
69027;BME280;56080;47.594;19.116;2022-12-07T04:56:22;100115;;;3.01;100.00
69027;BME280;56080;47.594;19.116;2022-12-07T05:01:22;100105;;;3.15;100.00
69027;BME280;56080;47.594;19.116;2022-12-07T05:06:22;100106;;;3.23;100.00
69027;BME280;56080;47.594;19.116;2022-12-07T05:11:32;100108;;;3.18;100.00
69027;BME280;56080;47.594;19.116;2022-12-07T05:16:22;100103;;;3.27;100.00
69027;BME280;56080;47.594;19.116;2022-12-07T05:21:22;100100;;;3.38;100.00
69027;BME280;56080;47.594;19.116;2022-12-07T05:26:22;100103;;;3.37;100.00
69027;BME280;56080;47.594;19.116;2022-12-07T05:31:23;100109;;;3.23;100.00
69027;BME280;56080;47.594;19.116;2022-12-07T05:36:22;100110;;;3.07;100.00
69027;BME280;56080;47.594;19.116;2022-12-07T05:41:32;100110;;;3.17;100.00
69027;BME280;56080;47.594;19.116;2022-12-07T05:46:22;100105;;;3.07;100.00
69027;BME280;56080;47.594;19.116;2022-12-07T05:51:22;100112;;;3.01;100.00
69027;BME280;56080;47.594;19.116;2022-12-07T05:56:22;100119;;;3.08;100.00
69027;BME280;56080;47.594;19.116;2022-12-07T06:01:22;100117;;;3.11;100.00
69027;BME280;56080;47.594;19.116;2022-12-07T06:06:22;100119;;;3.06;100.00
69027;BME280;56080;47.594;19.116;2022-12-07T06:11:32;100114;;;2.94;100.00
69027;BME280;56080;47.594;19.116;2022-12-07T06:16:22;100115;;;2.93;100.00
69027;BME280;56080;47.594;19.116;2022-12-07T06:21:22;100119;;;2.81;100.00
69027;BME280;56080;47.594;19.116;2022-12-07T06:26:22;100121;;;2.84;100.00
69027;BME280;56080;47.594;19.116;2022-12-07T06:31:22;100117;;;2.83;100.00
69027;BME280;56080;47.594;19.116;2022-12-07T06:41:22;100139;;;2.84;100.00
69027;BME280;56080;47.594;19.116;2022-12-07T06:46:22;100141;;;2.93;100.00
69027;BME280;56080;47.594;19.116;2022-12-07T06:56:23;100135;;;3.02;100.00
69027;BME280;56080;47.594;19.116;2022-12-07T07:01:22;100134;;;3.07;100.00
69027;BME280;56080;47.594;19.116;2022-12-07T07:06:22;100129;;;3.14;100.00
69027;BME280;56080;47.594;19.116;2022-12-07T07:11:22;100133;;;2.90;100.00
69027;BME280;56080;47.594;19.116;2022-12-07T07:16:22;100128;;;2.93;100.00
69027;BME280;56080;47.594;19.116;2022-12-07T07:21:22;100142;;;2.98;100.00
69027;BME280;56080;47.594;19.116;2022-12-07T07:26:23;100132;;;3.15;100.00
69027;BME280;56080;47.594;19.116;2022-12-07T07:31:22;100136;;;3.18;100.00
69027;BME280;56080;47.594;19.116;2022-12-07T07:36:22;100133;;;3.00;100.00
69027;BME280;56080;47.594;19.116;2022-12-07T07:41:22;100139;;;3.07;100.00
69027;BME280;56080;47.594;19.116;2022-12-07T07:46:22;100146;;;2.94;100.00
69027;BME280;56080;47.594;19.116;2022-12-07T07:51:22;100133;;;3.04;100.00
69027;BME280;56080;47.594;19.116;2022-12-07T07:56:22;100136;;;3.15;100.00
69027;BME280;56080;47.594;19.116;2022-12-07T08:01:22;100135;;;3.17;100.00
69027;BME280;56080;47.594;19.116;2022-12-07T08:06:22;100144;;;3.41;100.00
69027;BME280;56080;47.594;19.116;2022-12-07T08:11:22;100146;;;3.56;100.00
69027;BME280;56080;47.594;19.116;2022-12-07T08:16:23;100148;;;3.63;100.00
69027;BME280;56080;47.594;19.116;2022-12-07T08:21:22;100147;;;3.61;100.00
69027;BME280;56080;47.594;19.116;2022-12-07T08:26:22;100168;;;3.77;100.00
69027;BME280;56080;47.594;19.116;2022-12-07T08:31:22;100163;;;3.98;100.00
69027;BME280;56080;47.594;19.116;2022-12-07T08:36:23;100160;;;4.03;100.00
69027;BME280;56080;47.594;19.116;2022-12-07T08:41:22;100163;;;4.30;100.00
69027;BME280;56080;47.594;19.116;2022-12-07T08:46:24;100168;;;4.52;100.00
69027;BME280;56080;47.594;19.116;2022-12-07T08:51:22;100170;;;4.76;100.00
69027;BME280;56080;47.594;19.116;2022-12-07T08:56:22;100173;;;4.88;99.37
69027;BME280;56080;47.594;19.116;2022-12-07T09:01:22;100176;;;4.99;97.79
69027;BME280;56080;47.594;19.116;2022-12-07T09:06:23;100168;;;5.01;96.60
69027;BME280;56080;47.594;19.116;2022-12-07T09:11:29;100169;;;5.14;95.10
69027;BME280;56080;47.594;19.116;2022-12-07T09:16:22;100162;;;5.31;94.38
69027;BME280;56080;47.594;19.116;2022-12-07T09:21:22;100157;;;5.58;93.41
69027;BME280;56080;47.594;19.116;2022-12-07T09:26:22;100148;;;5.81;91.20
69027;BME280;56080;47.594;19.116;2022-12-07T09:31:26;100146;;;6.64;87.66
69027;BME280;56080;47.594;19.116;2022-12-07T09:36:27;100146;;;6.61;85.53
69027;BME280;56080;47.594;19.116;2022-12-07T09:41:22;100146;;;7.24;83.85
69027;BME280;56080;47.594;19.116;2022-12-07T09:46:22;100139;;;7.35;81.79
69027;BME280;56080;47.594;19.116;2022-12-07T09:51:24;100139;;;6.83;83.64
69027;BME280;56080;47.594;19.116;2022-12-07T09:56:22;100137;;;6.90;81.88
69027;BME280;56080;47.594;19.116;2022-12-07T10:01:22;100131;;;6.53;82.82
69027;BME280;56080;47.594;19.116;2022-12-07T10:06:22;100125;;;6.39;82.99
69027;BME280;56080;47.594;19.116;2022-12-07T10:11:22;100115;;;6.56;83.62
69027;BME280;56080;47.594;19.116;2022-12-07T10:21:24;100117;;;6.50;81.39
69027;BME280;56080;47.594;19.116;2022-12-07T10:26:26;100114;;;6.35;81.53
69027;BME280;56080;47.594;19.116;2022-12-07T10:31:23;100122;;;6.30;82.12
69027;BME280;56080;47.594;19.116;2022-12-07T10:41:22;100092;;;6.32;81.43
69027;BME280;56080;47.594;19.116;2022-12-07T10:51:41;100090;;;6.14;82.26
69027;BME280;56080;47.594;19.116;2022-12-07T11:06:39;100083;;;6.09;83.00
69027;BME280;56080;47.594;19.116;2022-12-07T11:11:24;100083;;;6.14;84.19
69027;BME280;56080;47.594;19.116;2022-12-07T11:16:24;100081;;;6.16;82.49
69027;BME280;56080;47.594;19.116;2022-12-07T11:21:24;100083;;;6.18;82.65
69027;BME280;56080;47.594;19.116;2022-12-07T11:31:41;100075;;;6.26;83.66
69027;BME280;56080;47.594;19.116;2022-12-07T11:41:23;100064;;;6.13;83.18
69027;BME280;56080;47.594;19.116;2022-12-07T11:46:27;100071;;;6.05;82.67
69027;BME280;56080;47.594;19.116;2022-12-07T11:51:22;100074;;;6.14;81.06
69027;BME280;56080;47.594;19.116;2022-12-07T11:56:23;100072;;;6.16;80.46
69027;BME280;56080;47.594;19.116;2022-12-07T12:01:26;100069;;;6.22;81.17
69027;BME280;56080;47.594;19.116;2022-12-07T12:11:31;100057;;;6.19;80.80
69027;BME280;56080;47.594;19.116;2022-12-07T12:16:37;100056;;;6.13;80.46
69027;BME280;56080;47.594;19.116;2022-12-07T12:21:23;100045;;;6.17;80.22
69027;BME280;56080;47.594;19.116;2022-12-07T12:26:23;100035;;;6.22;79.26
69027;BME280;56080;47.594;19.116;2022-12-07T12:46:38;100030;;;6.37;76.30
69027;BME280;56080;47.594;19.116;2022-12-07T12:51:38;100023;;;6.43;76.22
69027;BME280;56080;47.594;19.116;2022-12-07T12:56:26;100033;;;6.41;76.52
69027;BME280;56080;47.594;19.116;2022-12-07T13:11:40;100035;;;6.32;76.64
69027;BME280;56080;47.594;19.116;2022-12-07T13:31:25;100047;;;6.33;75.74
69027;BME280;56080;47.594;19.116;2022-12-07T13:36:23;100044;;;6.38;76.04
69027;BME280;56080;47.594;19.116;2022-12-07T13:46:26;100049;;;6.39;75.11
69027;BME280;56080;47.594;19.116;2022-12-07T13:51:25;100053;;;6.34;74.25
69027;BME280;56080;47.594;19.116;2022-12-07T13:56:26;100060;;;6.28;72.61
69027;BME280;56080;47.594;19.116;2022-12-07T14:01:23;100063;;;6.23;71.18
69027;BME280;56080;47.594;19.116;2022-12-07T14:06:25;100064;;;6.22;70.76
69027;BME280;56080;47.594;19.116;2022-12-07T14:11:22;100054;;;6.16;71.30
69027;BME280;56080;47.594;19.116;2022-12-07T14:16:24;100058;;;6.14;72.54
69027;BME280;56080;47.594;19.116;2022-12-07T14:21:24;100067;;;6.04;72.94
69027;BME280;56080;47.594;19.116;2022-12-07T14:26:22;100072;;;5.93;73.55
69027;BME280;56080;47.594;19.116;2022-12-07T14:31:30;100076;;;5.91;74.12
69027;BME280;56080;47.594;19.116;2022-12-07T14:36:22;100079;;;5.75;75.29
69027;BME280;56080;47.594;19.116;2022-12-07T14:41:33;100076;;;5.62;76.28
69027;BME280;56080;47.594;19.116;2022-12-07T14:46:22;100075;;;5.41;77.69
69027;BME280;56080;47.594;19.116;2022-12-07T14:51:32;100082;;;5.30;78.74
69027;BME280;56080;47.594;19.116;2022-12-07T14:56:22;100087;;;5.13;79.88
69027;BME280;56080;47.594;19.116;2022-12-07T15:01:22;100088;;;5.00;80.66
69027;BME280;56080;47.594;19.116;2022-12-07T15:06:22;100088;;;4.95;80.67
69027;BME280;56080;47.594;19.116;2022-12-07T15:11:22;100090;;;4.91;80.40
69027;BME280;56080;47.594;19.116;2022-12-07T15:16:22;100088;;;5.01;79.99
69027;BME280;56080;47.594;19.116;2022-12-07T15:21:22;100098;;;4.74;80.59
69027;BME280;56080;47.594;19.116;2022-12-07T15:26:22;100095;;;4.60;81.44
69027;BME280;56080;47.594;19.116;2022-12-07T15:31:32;100099;;;4.58;81.34
69027;BME280;56080;47.594;19.116;2022-12-07T15:36:24;100101;;;4.61;80.95
69027;BME280;56080;47.594;19.116;2022-12-07T15:41:23;100113;;;4.44;81.88
69027;BME280;56080;47.594;19.116;2022-12-07T15:46:22;100116;;;4.37;82.61
69027;BME280;56080;47.594;19.116;2022-12-07T15:51:25;100116;;;4.23;83.35
69027;BME280;56080;47.594;19.116;2022-12-07T15:56:22;100116;;;4.04;83.77
69027;BME280;56080;47.594;19.116;2022-12-07T16:01:22;100121;;;4.00;84.35
69027;BME280;56080;47.594;19.116;2022-12-07T16:06:22;100117;;;4.20;83.08
69027;BME280;56080;47.594;19.116;2022-12-07T16:11:23;100120;;;3.83;84.98
69027;BME280;56080;47.594;19.116;2022-12-07T16:16:22;100116;;;4.00;83.70
69027;BME280;56080;47.594;19.116;2022-12-07T16:21:26;100117;;;4.04;83.50
69027;BME280;56080;47.594;19.116;2022-12-07T16:26:22;100122;;;3.92;83.88
69027;BME280;56080;47.594;19.116;2022-12-07T16:31:23;100124;;;3.60;85.91
69027;BME280;56080;47.594;19.116;2022-12-07T16:36:32;100111;;;3.61;86.20
69027;BME280;56080;47.594;19.116;2022-12-07T16:41:23;100128;;;3.58;87.07
69027;BME280;56080;47.594;19.116;2022-12-07T16:46:22;100128;;;3.47;87.14
69027;BME280;56080;47.594;19.116;2022-12-07T16:51:22;100129;;;3.45;87.06
69027;BME280;56080;47.594;19.116;2022-12-07T16:56:22;100133;;;3.38;88.14
69027;BME280;56080;47.594;19.116;2022-12-07T17:01:23;100130;;;3.11;88.85
69027;BME280;56080;47.594;19.116;2022-12-07T17:06:24;100133;;;3.06;87.79
69027;BME280;56080;47.594;19.116;2022-12-07T17:11:23;100133;;;3.17;87.20
69027;BME280;56080;47.594;19.116;2022-12-07T17:16:23;100140;;;2.90;89.40
69027;BME280;56080;47.594;19.116;2022-12-07T17:26:23;100122;;;2.95;90.38
69027;BME280;56080;47.594;19.116;2022-12-07T17:31:23;100117;;;3.07;89.35
69027;BME280;56080;47.594;19.116;2022-12-07T17:36:24;100124;;;3.39;89.33
69027;BME280;56080;47.594;19.116;2022-12-07T17:41:32;100136;;;3.55;88.64
69027;BME280;56080;47.594;19.116;2022-12-07T17:46:23;100142;;;3.52;87.81
69027;BME280;56080;47.594;19.116;2022-12-07T17:51:32;100142;;;3.49;88.09
69027;BME280;56080;47.594;19.116;2022-12-07T17:56:29;100153;;;3.34;88.75
69027;BME280;56080;47.594;19.116;2022-12-07T18:01:26;100155;;;3.36;88.91
69027;BME280;56080;47.594;19.116;2022-12-07T18:06:22;100167;;;3.27;89.01
69027;BME280;56080;47.594;19.116;2022-12-07T18:11:23;100164;;;3.26;89.16
69027;BME280;56080;47.594;19.116;2022-12-07T18:16:24;100168;;;3.30;89.20
69027;BME280;56080;47.594;19.116;2022-12-07T18:21:24;100169;;;3.38;88.23
69027;BME280;56080;47.594;19.116;2022-12-07T18:26:24;100167;;;3.24;88.56
69027;BME280;56080;47.594;19.116;2022-12-07T18:31:23;100162;;;3.09;88.90
69027;BME280;56080;47.594;19.116;2022-12-07T18:36:23;100161;;;2.94;89.54
69027;BME280;56080;47.594;19.116;2022-12-07T18:46:22;100158;;;2.86;89.84
69027;BME280;56080;47.594;19.116;2022-12-07T18:51:28;100164;;;2.70;90.42
69027;BME280;56080;47.594;19.116;2022-12-07T18:56:23;100161;;;2.74;89.53
69027;BME280;56080;47.594;19.116;2022-12-07T19:01:23;100162;;;2.79;90.16
69027;BME280;56080;47.594;19.116;2022-12-07T19:06:22;100162;;;2.65;90.20
69027;BME280;56080;47.594;19.116;2022-12-07T19:11:37;100164;;;2.58;89.53
69027;BME280;56080;47.594;19.116;2022-12-07T19:16:23;100171;;;2.32;88.47
69027;BME280;56080;47.594;19.116;2022-12-07T19:21:24;100176;;;2.00;89.04
69027;BME280;56080;47.594;19.116;2022-12-07T19:26:23;100178;;;1.64;89.81
69027;BME280;56080;47.594;19.116;2022-12-07T19:31:23;100177;;;1.58;90.41
69027;BME280;56080;47.594;19.116;2022-12-07T19:36:23;100177;;;1.42;91.76
69027;BME280;56080;47.594;19.116;2022-12-07T19:41:32;100173;;;1.37;91.30
69027;BME280;56080;47.594;19.116;2022-12-07T19:46:23;100176;;;1.16;91.79
69027;BME280;56080;47.594;19.116;2022-12-07T19:51:23;100166;;;1.25;92.63
69027;BME280;56080;47.594;19.116;2022-12-07T19:56:23;100166;;;1.38;93.20
69027;BME280;56080;47.594;19.116;2022-12-07T20:01:23;100176;;;1.36;92.00
69027;BME280;56080;47.594;19.116;2022-12-07T20:06:23;100173;;;1.21;92.69
69027;BME280;56080;47.594;19.116;2022-12-07T20:11:34;100187;;;1.45;93.29
69027;BME280;56080;47.594;19.116;2022-12-07T20:16:23;100189;;;1.52;92.43
69027;BME280;56080;47.594;19.116;2022-12-07T20:21:23;100193;;;1.46;92.03
69027;BME280;56080;47.594;19.116;2022-12-07T20:26:23;100189;;;1.43;92.73
69027;BME280;56080;47.594;19.116;2022-12-07T20:31:23;100187;;;1.35;93.55
69027;BME280;56080;47.594;19.116;2022-12-07T20:36:23;100199;;;1.54;94.35
69027;BME280;56080;47.594;19.116;2022-12-07T20:41:33;100204;;;1.47;93.46
69027;BME280;56080;47.594;19.116;2022-12-07T20:46:23;100200;;;1.32;92.75
69027;BME280;56080;47.594;19.116;2022-12-07T20:51:23;100199;;;1.52;94.48
69027;BME280;56080;47.594;19.116;2022-12-07T20:56:24;100202;;;1.39;93.16
69027;BME280;56080;47.594;19.116;2022-12-07T21:01:23;100200;;;1.72;93.38
69027;BME280;56080;47.594;19.116;2022-12-07T21:06:23;100209;;;1.46;93.39
69027;BME280;56080;47.594;19.116;2022-12-07T21:11:23;100207;;;1.38;92.62
69027;BME280;56080;47.594;19.116;2022-12-07T21:16:24;100215;;;1.32;92.67
69027;BME280;56080;47.594;19.116;2022-12-07T21:21:23;100205;;;1.09;93.30
69027;BME280;56080;47.594;19.116;2022-12-07T21:26:23;100207;;;1.02;93.86
69027;BME280;56080;47.594;19.116;2022-12-07T21:31:22;100211;;;1.06;94.48
69027;BME280;56080;47.594;19.116;2022-12-07T21:36:23;100212;;;1.11;93.05
69027;BME280;56080;47.594;19.116;2022-12-07T21:46:28;100213;;;0.68;93.00
69027;BME280;56080;47.594;19.116;2022-12-07T21:51:23;100213;;;0.74;95.11
69027;BME280;56080;47.594;19.116;2022-12-07T21:56:24;100206;;;0.65;95.22
69027;BME280;56080;47.594;19.116;2022-12-07T22:06:23;100219;;;0.59;98.35
69027;BME280;56080;47.594;19.116;2022-12-07T22:11:22;100221;;;0.84;98.28
69027;BME280;56080;47.594;19.116;2022-12-07T22:16:23;100225;;;1.04;97.43
69027;BME280;56080;47.594;19.116;2022-12-07T22:21:23;100219;;;0.67;96.62
69027;BME280;56080;47.594;19.116;2022-12-07T22:26:25;100207;;;0.79;96.24
69027;BME280;56080;47.594;19.116;2022-12-07T22:31:23;100202;;;0.56;96.24
69027;BME280;56080;47.594;19.116;2022-12-07T22:36:22;100195;;;0.61;94.55
69027;BME280;56080;47.594;19.116;2022-12-07T22:41:23;100187;;;0.58;95.10
69027;BME280;56080;47.594;19.116;2022-12-07T22:46:23;100184;;;0.40;94.71
69027;BME280;56080;47.594;19.116;2022-12-07T22:51:24;100186;;;0.07;97.61
69027;BME280;56080;47.594;19.116;2022-12-07T22:56:22;100181;;;0.26;95.05
69027;BME280;56080;47.594;19.116;2022-12-07T23:01:23;100201;;;-0.09;96.79
69027;BME280;56080;47.594;19.116;2022-12-07T23:06:23;100202;;;-0.20;98.16
69027;BME280;56080;47.594;19.116;2022-12-07T23:11:33;100195;;;0.13;98.08
69027;BME280;56080;47.594;19.116;2022-12-07T23:16:23;100185;;;0.03;97.66
69027;BME280;56080;47.594;19.116;2022-12-07T23:21:22;100181;;;0.10;96.16
69027;BME280;56080;47.594;19.116;2022-12-07T23:26:23;100177;;;0.05;95.85
69027;BME280;56080;47.594;19.116;2022-12-07T23:31:23;100184;;;-0.12;95.95
69027;BME280;56080;47.594;19.116;2022-12-07T23:36:23;100185;;;-0.20;96.39
69027;BME280;56080;47.594;19.116;2022-12-07T23:41:25;100195;;;0.02;95.89
69027;BME280;56080;47.594;19.116;2022-12-07T23:46:25;100192;;;-0.05;94.35
69027;BME280;56080;47.594;19.116;2022-12-07T23:51:22;100190;;;-0.53;96.80
69027;BME280;56080;47.594;19.116;2022-12-07T23:56:24;100199;;;-0.39;96.88
